Time;durP1;ratioP1;P1;durP2;ratioP2;P2;SDS_P1;SDS_P2;PMS_P1;PMS_P2;Temp;Humidity;BMP_temperature;BMP_pressure;BME280_temperature;BME280_humidity;BME280_pressure;Samples;Min_cycle;Max_cycle;Signal;HPM_P1;HPM_P2
2021/10/28 00:12:22;;;;;;;;;;;;;;;;;;5136824;28;19895;-73
2021/10/28 00:14:53;;;;;;;;;;;;;;;;;;5135404;28;19914;-72
2021/10/28 00:17:24;;;;;;;;;;;;;;;;;;5135987;28;19930;-72
2021/10/28 00:19:49;;;;;;;;;;;;;;;;;;5136574;28;19900;-72
2021/10/28 00:22:14;;;;;;;;;;;;;;;;;;5133784;28;19914;-72
2021/10/28 00:24:39;;;;;;;;;;;;;;;;;;5135290;28;19907;-72
2021/10/28 00:27:05;;;;;;;;;;;;;;;;;;5135914;28;19904;-72
2021/10/28 00:29:30;;;;;;;;;;;;;;;;;;5136422;28;19900;-72
2021/10/28 00:31:56;;;;;;;;;;;;;;;;;;5137007;28;19952;-72
2021/10/28 00:34:21;;;;;;;;;;;;;;;;;;5136471;28;19942;-72
2021/10/28 00:36:47;;;;;;;;;;;;;;;;;;5118398;28;19904;-72
2021/10/28 00:39:12;;;;;;;;;;;;;;;;;;5133117;28;19907;-73
2021/10/28 00:41:38;;;;;;;;;;;;;;;;;;5133927;28;19900;-73
2021/10/28 00:44:03;;;;;;;;;;;;;;;;;;5136603;27;19955;-72
2021/10/28 00:46:29;;;;;;;;;;;;;;;;;;5135487;28;19912;-72
2021/10/28 00:48:54;;;;;;;;;;;;;;;;;;5136087;28;19908;-72
2021/10/28 00:51:19;;;;;;;;;;;;;;;;;;5136227;28;19953;-72
2021/10/28 00:53:44;;;;;;;;;;;;;;;;;;5118537;28;19929;-72
2021/10/28 00:56:10;;;;;;;;;;;;;;;;;;5125471;28;19930;-72
2021/10/28 00:58:35;;;;;;;;;;;;;;;;;;5136491;28;19957;-72
2021/10/28 01:01:00;;;;;;;;;;;;;;;;;;5136441;28;19900;-72
2021/10/28 01:03:26;;;;;;;;;;;;;;;;;;5133198;27;19967;-72
2021/10/28 01:05:51;;;;;;;;;;;;;;;;;;5136177;28;19903;-72
2021/10/28 01:08:16;;;;;;;;;;;;;;;;;;5136002;28;19918;-73
2021/10/28 01:10:41;;;;;;;;;;;;;;;;;;5147414;27;19900;-71
2021/10/28 01:13:07;;;;;;;;;;;;;;;;;;5136160;28;20128;-72
2021/10/28 01:15:32;;;;;;;;;;;;;;;;;;5135824;28;20277;-72
2021/10/28 01:17:57;;;;;;;;;;;;;;;;;;5136109;28;19918;-72
2021/10/28 01:20:23;;;;;;;;;;;;;;;;;;5135733;28;19912;-72
2021/10/28 01:22:48;;;;;;;;;;;;;;;;;;5134771;28;19927;-72
2021/10/28 01:25:13;;;;;;;;;;;;;;;;;;5134810;28;19896;-72
2021/10/28 01:27:39;;;;;;;;;;;;;;;;;;5135704;28;19900;-72
2021/10/28 01:30:05;;;;;;;;;;;;;;;;;;5135834;28;19933;-72
2021/10/28 01:32:30;;;;;;;;;;;;;;;;;;5135766;28;19979;-73
2021/10/28 01:34:55;;;;;;;;;;;;;;;;;;5135422;28;19906;-72
2021/10/28 01:37:21;;;;;;;;;;;;;;;;;;5133309;28;20127;-72
2021/10/28 01:39:46;;;;;;;;;;;;;;;;;;5134961;28;19955;-72
2021/10/28 01:42:11;;;;;;;;;;;;;;;;;;5134324;28;19931;-72
2021/10/28 01:44:36;;;;;;;;;;;;;;;;;;5134654;28;19907;-72
2021/10/28 01:47:02;;;;;;;;;;;;;;;;;;5134736;28;19899;-72
2021/10/28 01:49:27;;;;;;;;;;;;;;;;;;5135477;28;19926;-72
2021/10/28 01:51:54;;;;;;;;;;;;;;;;;;5117210;28;19907;-72
2021/10/28 01:54:19;;;;;;;;;;;;;;;;;;5135078;28;19906;-73
2021/10/28 01:56:44;;;;;;;;;;;;;;;;;;5135350;28;19908;-72
2021/10/28 01:59:10;;;;;;;;;;;;;;;;;;5135662;28;19903;-72
2021/10/28 02:01:35;;;;;;;;;;;;;;;;;;5135462;28;19908;-72
2021/10/28 02:04:01;;;;;;;;;;;;;;;;;;5135099;28;19904;-72
2021/10/28 02:06:28;;;;;;;;;;;;;;;;;;5134495;28;19939;-72
2021/10/28 02:08:53;;;;;;;;;;;;;;;;;;5133632;28;19929;-72
2021/10/28 02:11:18;;;;;;;;;;;;;;;;;;5134997;28;19899;-73
2021/10/28 02:13:43;;;;;;;;;;;;;;;;;;5135322;28;19900;-72
2021/10/28 02:16:09;;;;;;;;;;;;;;;;;;5134077;28;19979;-72
2021/10/28 02:18:34;;;;;;;;;;;;;;;;;;5135216;28;19935;-72
2021/10/28 02:21:00;;;;;;;;;;;;;;;;;;5135292;28;19934;-72
2021/10/28 02:23:25;;;;;;;;;;;;;;;;;;5139282;28;19939;-73
2021/10/28 02:25:50;;;;;;;;;;;;;;;;;;5138706;28;19904;-72
2021/10/28 02:28:16;;;;;;;;;;;;;;;;;;5139020;28;19958;-72
2021/10/28 02:30:41;;;;;;;;;;;;;;;;;;5139272;28;19907;-72
2021/10/28 02:33:06;;;;;;;;;;;;;;;;;;5138927;28;19955;-73
2021/10/28 02:35:31;;;;;;;;;;;;;;;;;;5138988;28;19900;-74
2021/10/28 02:37:57;;;;;;;;;;;;;;;;;;5139310;28;19907;-72
2021/10/28 02:40:24;;;;;;;;;;;;;;;;;;5139065;28;19930;-72
2021/10/28 02:42:49;;;;;;;;;;;;;;;;;;5125790;28;19989;-72
2021/10/28 02:45:15;;;;;;;;;;;;;;;;;;5138713;28;19908;-72
2021/10/28 02:47:40;;;;;;;;;;;;;;;;;;5138917;28;19931;-73
2021/10/28 02:50:05;;;;;;;;;;;;;;;;;;5139002;28;19934;-72
2021/10/28 02:52:30;;;;;;;;;;;;;;;;;;5126979;28;19911;-72
2021/10/28 02:54:56;;;;;;;;;;;;;;;;;;5138341;28;19901;-73
2021/10/28 02:57:21;;;;;;;;;;;;;;;;;;5138842;28;19921;-73
2021/10/28 02:59:46;;;;;;;;;;;;;;;;;;5136240;28;19899;-73
2021/10/28 03:02:11;;;;;;;;;;;;;;;;;;5137011;28;19904;-73
2021/10/28 03:04:37;;;;;;;;;;;;;;;;;;5137535;28;19931;-72
2021/10/28 03:07:02;;;;;;;;;;;;;;;;;;5138153;28;19957;-72
2021/10/28 03:09:27;;;;;;;;;;;;;;;;;;5138455;28;19927;-72
2021/10/28 03:11:55;;;;;;;;;;;;;;;;;;5138247;28;19900;-73
2021/10/28 03:14:27;;;;;;;;;;;;;;;;;;5137649;28;19896;-72
2021/10/28 03:16:58;;;;;;;;;;;;;;;;;;5137885;28;19907;-72
2021/10/28 03:27:29;;;;;;;;;;;;;;;;;;5137361;28;19903;-72
2021/10/28 03:29:55;;;;;;;;;;;;;;;;;;5137601;28;19911;-72
2021/10/28 03:32:21;;;;;;;;;;;;;;;;;;5150248;27;19939;-73
2021/10/28 03:34:48;;;;;;;;;;;;;;;;;;5137174;28;19896;-72
2021/10/28 03:40:14;;;;;;;;;;;;;;;;;;5137654;28;19908;-72
2021/10/28 04:29:34;;;;;;;;;;;;;;;;;;5136928;28;19986;-73
2021/10/28 04:31:59;;;;;;;;;;;;;;;;;;5136545;28;19924;-73
2021/10/28 04:34:24;;;;;;;;;;;;;;;;;;5136161;28;19911;-73
2021/10/28 04:36:49;;;;;;;;;;;;;;;;;;5136249;28;19896;-72
2021/10/28 04:39:15;;;;;;;;;;;;;;;;;;5135950;28;19908;-72
2021/10/28 04:41:40;;;;;;;;;;;;;;;;;;5135990;28;19955;-72
2021/10/28 04:44:11;;;;;;;;;;;;;;;;;;5136065;28;19935;-73
2021/10/28 04:46:36;;;;;;;;;;;;;;;;;;5135437;28;19975;-72
2021/10/28 04:49:02;;;;;;;;;;;;;;;;;;5136757;28;19904;-72
2021/10/28 04:51:27;;;;;;;;;;;;;;;;;;5136783;28;19907;-73
2021/10/28 04:53:52;;;;;;;;;;;;;;;;;;5136439;28;19900;-72
2021/10/28 04:56:18;;;;;;;;;;;;;;;;;;5135622;28;19900;-72
2021/10/28 04:58:43;;;;;;;;;;;;;;;;;;5136725;28;19991;-72
2021/10/28 05:01:08;;;;;;;;;;;;;;;;;;5136459;28;19963;-72
2021/10/28 05:03:35;;;;;;;;;;;;;;;;;;5136247;28;19900;-73
2021/10/28 05:06:00;;;;;;;;;;;;;;;;;;5134655;28;20072;-73
2021/10/28 05:08:25;;;;;;;;;;;;;;;;;;5133717;28;19922;-73
2021/10/28 05:10:50;;;;;;;;;;;;;;;;;;5135997;28;19903;-72
2021/10/28 05:13:16;;;;;;;;;;;;;;;;;;5126095;28;20186;-72
2021/10/28 05:15:41;;;;;;;;;;;;;;;;;;5133283;27;19896;-72
2021/10/28 05:18:08;;;;;;;;;;;;;;;;;;5135597;27;19900;-73
2021/10/28 05:20:34;;;;;;;;;;;;;;;;;;5135254;27;19963;-73
2021/10/28 05:22:59;;;;;;;;;;;;;;;;;;5134122;28;19973;-72
2021/10/28 05:25:24;;;;;;;;;;;;;;;;;;5135847;28;19904;-72
2021/10/28 05:27:49;;;;;;;;;;;;;;;;;;5135989;28;19921;-72
2021/10/28 05:30:15;;;;;;;;;;;;;;;;;;5123833;28;19986;-72
2021/10/28 05:32:40;;;;;;;;;;;;;;;;;;5135922;28;19904;-72
2021/10/28 05:35:05;;;;;;;;;;;;;;;;;;5135253;28;19904;-72
2021/10/28 05:37:31;;;;;;;;;;;;;;;;;;5135238;28;19900;-73
2021/10/28 05:40:00;;;;;;;;;;;;;;;;;;5135000;28;19900;-72
2021/10/28 05:42:25;;;;;;;;;;;;;;;;;;5134532;28;19897;-72
2021/10/28 05:44:50;;;;;;;;;;;;;;;;;;5133597;28;20243;-72
2021/10/28 05:47:15;;;;;;;;;;;;;;;;;;5131253;28;19912;-72
2021/10/28 05:49:41;;;;;;;;;;;;;;;;;;5132550;28;19911;-72
2021/10/28 05:52:06;;;;;;;;;;;;;;;;;;5131449;28;20027;-72
2021/10/28 05:54:31;;;;;;;;;;;;;;;;;;5133927;28;19907;-72
2021/10/28 05:56:57;;;;;;;;;;;;;;;;;;5133284;28;19911;-74
2021/10/28 05:59:22;;;;;;;;;;;;;;;;;;5133533;28;19907;-76
2021/10/28 06:01:47;;;;;;;;;;;;;;;;;;5132759;28;19907;-76
2021/10/28 06:04:12;;;;;;;;;;;;;;;;;;5134437;28;19925;-73
2021/10/28 06:06:39;;;;;;;;;;;;;;;;;;5130050;28;20292;-75
2021/10/28 06:09:05;;;;;;;;;;;;;;;;;;5132082;28;20316;-75
2021/10/28 06:11:30;;;;;;;;;;;;;;;;;;5133764;28;19910;-75
2021/10/28 06:13:55;;;;;;;;;;;;;;;;;;5132298;28;19916;-74
2021/10/28 06:16:20;;;;;;;;;;;;;;;;;;5114962;28;19907;-75
2021/10/28 06:18:49;;;;;;;;;;;;;;;;;;5130633;28;19923;-75
2021/10/28 06:21:16;;;;;;;;;;;;;;;;;;5131679;28;19900;-73
2021/10/28 06:23:42;;;;;;;;;;;;;;;;;;5131196;28;19975;-73
2021/10/28 06:26:07;;;;;;;;;;;;;;;;;;5131266;28;19915;-75
2021/10/28 06:28:33;;;;;;;;;;;;;;;;;;5131382;28;19899;-75
2021/10/28 06:30:59;;;;;;;;;;;;;;;;;;5132006;28;19908;-76
2021/10/28 06:33:27;;;;;;;;;;;;;;;;;;5132606;28;19924;-74
2021/10/28 06:35:52;;;;;;;;;;;;;;;;;;5129192;28;19935;-75
2021/10/28 06:38:17;;;;;;;;;;;;;;;;;;5112629;28;19906;-75
2021/10/28 06:40:43;;;;;;;;;;;;;;;;;;5130442;28;19904;-75
2021/10/28 06:43:08;;;;;;;;;;;;;;;;;;5132185;28;19907;-74
2021/10/28 06:45:33;;;;;;;;;;;;;;;;;;5130690;28;19915;-75
2021/10/28 06:47:58;;;;;;;;;;;;;;;;;;5130560;28;19939;-75
2021/10/28 06:50:29;;;;;;;;;;;;;;;;;;5120264;28;19931;-74
2021/10/28 07:03:28;;;;;;;;;;;;;;;;;;5117153;28;20210;-75
2021/10/28 07:05:53;;;;;;;;;;;;;;;;;;5123005;28;19908;-75
2021/10/28 07:08:18;;;;;;;;;;;;;;;;;;5124060;28;19910;-74
2021/10/28 07:10:45;;;;;;;;;;;;;;;;;;5128003;27;20236;-72
2021/10/28 07:13:19;;;;;;;;;;;;;;;;;;5126822;27;20172;-74
2021/10/28 07:15:52;;;;;;;;;;;;;;;;;;5126577;27;19900;-74
2021/10/28 07:18:40;;;;;;;;;;;;;;;;;;5124465;27;20025;-76
2021/10/28 07:23:56;;;;;;;;;;;;;;;;;;5125864;28;19899;-74
2021/10/28 07:29:55;;;;;;;;;;;;;;;;;;5129850;27;19900;-72
2021/10/28 08:17:57;;;;;;;;;;;;;;;;;;5127444;27;19904;-75
2021/10/28 08:23:30;;;;;;;;;;;;;;;;;;5125990;27;19920;-75
2021/10/28 08:28:49;;;;;;;;;;;;;;;;;;5125817;27;19907;-75
2021/10/28 08:31:15;;;;;;;;;;;;;;;;;;5125661;27;19907;-76
2021/10/28 08:33:40;;;;;;;;;;;;;;;;;;5126783;27;19899;-76
2021/10/28 08:36:10;;;;;;;;;;;;;;;;;;5124497;28;19907;-76
2021/10/28 08:38:35;;;;;;;;;;;;;;;;;;5124366;27;19900;-76
2021/10/28 08:41:00;;;;;;;;;;;;;;;;;;5128979;27;19900;-76
2021/10/28 08:43:26;;;;;;;;;;;;;;;;;;5123359;27;19915;-74
2021/10/28 08:45:53;;;;;;;;;;;;;;;;;;5117250;27;19922;-76
2021/10/28 08:48:18;;;;;;;;;;;;;;;;;;5125012;27;19931;-75
2021/10/28 08:50:49;;;;;;;;;;;;;;;;;;5126372;27;19900;-75
2021/10/28 08:53:35;;;;;;;;;;;;;;;;;;5123583;27;19900;-76
2021/10/28 08:56:05;;;;;;;;;;;;;;;;;;5126126;27;19908;-76
2021/10/28 09:25:18;;;;;;;;;;;;;;;;;;5124351;28;20099;-75
2021/10/28 09:27:55;;;;;;;;;;;;;;;;;;5124212;28;19928;-76
2021/10/28 09:30:28;;;;;;;;;;;;;;;;;;5113565;27;19914;-77
2021/10/28 09:32:54;;;;;;;;;;;;;;;;;;5122139;27;19907;-74
2021/10/28 09:51:07;;;;;;;;;;;;;;;;;;5123768;27;19910;-74
2021/10/28 09:53:38;;;;;;;;;;;;;;;;;;5122732;28;19903;-75
2021/10/28 09:58:48;;;;;;;;;;;;;;;;;;5123334;28;19900;-76
2021/10/28 10:01:13;;;;;;;;;;;;;;;;;;5118041;27;19983;-75
2021/10/28 10:03:42;;;;;;;;;;;;;;;;;;5120960;28;19900;-75
2021/10/28 10:06:14;;;;;;;;;;;;;;;;;;5118392;28;19950;-76
2021/10/28 10:08:39;;;;;;;;;;;;;;;;;;5123984;28;19931;-76
2021/10/28 10:11:04;;;;;;;;;;;;;;;;;;5122450;28;19922;-76
2021/10/28 10:13:29;;;;;;;;;;;;;;;;;;5120191;28;19923;-76
2021/10/28 10:15:57;;;;;;;;;;;;;;;;;;5122702;28;19942;-76
2021/10/28 10:18:23;;;;;;;;;;;;;;;;;;5121299;28;19907;-74
2021/10/28 10:20:59;;;;;;;;;;;;;;;;;;5120512;27;19954;-76
2021/10/28 10:26:14;;;;;;;;;;;;;;;;;;5130338;28;19908;-75
2021/10/28 10:29:11;;;;;;;;;;;;;;;;;;5131621;28;19900;-76
2021/10/28 12:43:57;;;;;;;;;;;;;;;;;;5126050;27;19900;-74
2021/10/28 12:46:45;;;;;;;;;;;;;;;;;;5125208;27;19943;-73
2021/10/28 12:49:41;;;;;;;;;;;;;;;;;;5125484;27;19906;-74
2021/10/28 12:55:12;;;;;;;;;;;;;;;;;;5124735;27;19911;-73
2021/10/28 13:03:08;;;;;;;;;;;;;;;;;;5130719;28;19900;-72
2021/10/28 13:49:16;;;;;;;;;;;;;;;;;;5134797;28;19900;-74
2021/10/28 13:59:56;;;;;;;;;;;;;;;;;;5129290;27;19900;-74
2021/10/28 15:28:42;;;;;;;;;;;;;;;;;;5131670;28;19983;-74
2021/10/28 15:41:28;;;;;;;;;;;;;;;;;;5135721;28;19904;-73
2021/10/28 16:21:55;;;;;;;;;;;;;;;;;;5132945;27;19899;-73
2021/10/28 16:24:20;;;;;;;;;;;;;;;;;;5134771;27;19908;-73
2021/10/28 16:26:46;;;;;;;;;;;;;;;;;;5133347;28;19942;-73
2021/10/28 16:29:12;;;;;;;;;;;;;;;;;;5133795;28;19900;-71
2021/10/28 16:31:37;;;;;;;;;;;;;;;;;;5150315;27;19933;-73
2021/10/28 16:34:03;;;;;;;;;;;;;;;;;;5135036;27;19899;-72
2021/10/28 16:36:28;;;;;;;;;;;;;;;;;;5133011;28;19916;-73
2021/10/28 16:38:53;;;;;;;;;;;;;;;;;;5152126;27;19927;-73
2021/10/28 16:41:18;;;;;;;;;;;;;;;;;;5134642;28;19950;-73
2021/10/28 16:43:44;;;;;;;;;;;;;;;;;;5133727;28;19904;-72
2021/10/28 16:46:09;;;;;;;;;;;;;;;;;;5134013;28;19896;-72
2021/10/28 16:48:34;;;;;;;;;;;;;;;;;;5146928;27;19921;-73
2021/10/28 16:51:00;;;;;;;;;;;;;;;;;;5134027;27;19948;-72
2021/10/28 16:53:25;;;;;;;;;;;;;;;;;;5124006;28;19922;-73
2021/10/28 16:55:50;;;;;;;;;;;;;;;;;;5130885;27;19918;-73
2021/10/28 16:58:16;;;;;;;;;;;;;;;;;;5133299;28;19908;-73
2021/10/28 17:00:41;;;;;;;;;;;;;;;;;;5132932;28;19923;-72
2021/10/28 17:03:06;;;;;;;;;;;;;;;;;;5133633;28;19900;-71
2021/10/28 17:05:31;;;;;;;;;;;;;;;;;;5132504;28;19930;-70
2021/10/28 17:07:56;;;;;;;;;;;;;;;;;;5130145;28;19964;-72
2021/10/28 17:10:22;;;;;;;;;;;;;;;;;;5130217;28;19910;-71
2021/10/28 17:12:47;;;;;;;;;;;;;;;;;;5131457;27;19992;-72
2021/10/28 17:15:12;;;;;;;;;;;;;;;;;;5132100;27;19907;-72
2021/10/28 17:17:38;;;;;;;;;;;;;;;;;;5134789;28;19965;-72
2021/10/28 17:20:06;;;;;;;;;;;;;;;;;;5132661;28;19895;-72
2021/10/28 17:22:31;;;;;;;;;;;;;;;;;;5133223;27;19929;-72
2021/10/28 17:24:58;;;;;;;;;;;;;;;;;;5133982;28;19903;-73
2021/10/28 17:27:24;;;;;;;;;;;;;;;;;;5134298;27;19925;-72
2021/10/28 17:29:49;;;;;;;;;;;;;;;;;;5133488;28;19971;-72
2021/10/28 17:32:14;;;;;;;;;;;;;;;;;;5152047;27;19934;-72
2021/10/28 17:34:39;;;;;;;;;;;;;;;;;;5133740;28;19919;-72
2021/10/28 17:37:05;;;;;;;;;;;;;;;;;;5134330;27;19903;-72
2021/10/28 17:39:30;;;;;;;;;;;;;;;;;;5134312;28;20006;-72
2021/10/28 17:41:57;;;;;;;;;;;;;;;;;;5133462;28;19911;-72
2021/10/28 17:44:25;;;;;;;;;;;;;;;;;;5132195;28;19927;-72
2021/10/28 17:46:51;;;;;;;;;;;;;;;;;;5134278;28;19918;-72
2021/10/28 17:49:16;;;;;;;;;;;;;;;;;;5132921;28;19904;-72
2021/10/28 17:51:41;;;;;;;;;;;;;;;;;;5133661;28;19910;-72
2021/10/28 17:54:10;;;;;;;;;;;;;;;;;;5132961;28;20186;-72
2021/10/28 17:56:35;;;;;;;;;;;;;;;;;;5133136;28;19904;-72
2021/10/28 17:59:04;;;;;;;;;;;;;;;;;;5125768;28;19918;-72
2021/10/28 18:01:29;;;;;;;;;;;;;;;;;;5133476;28;19896;-72
2021/10/28 18:03:58;;;;;;;;;;;;;;;;;;5138709;27;19907;-72
2021/10/28 18:06:23;;;;;;;;;;;;;;;;;;5133965;28;19910;-72
2021/10/28 18:08:48;;;;;;;;;;;;;;;;;;5134101;28;19903;-72
2021/10/28 18:11:14;;;;;;;;;;;;;;;;;;5133492;28;19911;-72
2021/10/28 18:13:39;;;;;;;;;;;;;;;;;;5132936;28;20120;-72
2021/10/28 18:16:06;;;;;;;;;;;;;;;;;;5132767;28;19908;-72
2021/10/28 18:18:31;;;;;;;;;;;;;;;;;;5131860;28;19904;-72
2021/10/28 18:20:56;;;;;;;;;;;;;;;;;;5149351;27;19919;-73
2021/10/28 18:23:21;;;;;;;;;;;;;;;;;;5131452;28;19912;-73
2021/10/28 18:25:46;;;;;;;;;;;;;;;;;;5133364;28;19899;-73
2021/10/28 18:28:12;;;;;;;;;;;;;;;;;;5134202;28;19967;-73
2021/10/28 18:30:37;;;;;;;;;;;;;;;;;;5131931;28;20136;-73
2021/10/28 18:33:02;;;;;;;;;;;;;;;;;;5133016;28;19900;-73
2021/10/28 18:35:28;;;;;;;;;;;;;;;;;;5133134;28;19920;-73
2021/10/28 18:37:54;;;;;;;;;;;;;;;;;;5133089;28;19974;-73
2021/10/28 18:40:19;;;;;;;;;;;;;;;;;;5133773;28;19900;-74
2021/10/28 18:42:45;;;;;;;;;;;;;;;;;;5133372;28;19900;-74
2021/10/28 18:45:10;;;;;;;;;;;;;;;;;;5132454;28;19899;-73
2021/10/28 18:47:35;;;;;;;;;;;;;;;;;;5133607;28;19900;-73
2021/10/28 18:50:01;;;;;;;;;;;;;;;;;;5133590;28;19900;-73
2021/10/28 18:52:28;;;;;;;;;;;;;;;;;;5132713;28;19919;-73
2021/10/28 18:54:53;;;;;;;;;;;;;;;;;;5132927;28;19911;-73
2021/10/28 18:57:21;;;;;;;;;;;;;;;;;;5132264;28;19904;-73
2021/10/28 18:59:48;;;;;;;;;;;;;;;;;;5132655;28;19904;-73
2021/10/28 19:02:13;;;;;;;;;;;;;;;;;;5133471;28;19900;-73
2021/10/28 19:04:38;;;;;;;;;;;;;;;;;;5134834;28;19903;-72
2021/10/28 19:07:04;;;;;;;;;;;;;;;;;;5136146;28;19931;-72
2021/10/28 19:09:29;;;;;;;;;;;;;;;;;;5136892;28;19908;-72
2021/10/28 19:11:54;;;;;;;;;;;;;;;;;;5136911;28;19953;-71
2021/10/28 19:14:19;;;;;;;;;;;;;;;;;;5136495;28;19925;-72
2021/10/28 19:16:45;;;;;;;;;;;;;;;;;;5137446;27;19968;-73
2021/10/28 19:19:10;;;;;;;;;;;;;;;;;;5134973;27;19995;-73
2021/10/28 19:21:35;;;;;;;;;;;;;;;;;;5134435;28;19929;-73
2021/10/28 19:24:01;;;;;;;;;;;;;;;;;;5134902;28;20105;-73
2021/10/28 19:26:26;;;;;;;;;;;;;;;;;;5135721;28;19900;-73
2021/10/28 19:28:52;;;;;;;;;;;;;;;;;;5135208;27;19903;-73
2021/10/28 19:31:21;;;;;;;;;;;;;;;;;;5135955;28;19922;-73
2021/10/28 19:33:53;;;;;;;;;;;;;;;;;;5135005;28;19912;-73
2021/10/28 19:36:27;;;;;;;;;;;;;;;;;;5135716;28;19915;-73
2021/10/28 19:39:11;;;;;;;;;;;;;;;;;;5135499;28;19904;-73
2021/10/28 19:46:57;;;;;;;;;;;;;;;;;;5134997;28;19926;-73
2021/10/28 19:49:22;;;;;;;;;;;;;;;;;;5133865;28;20240;-73
2021/10/28 19:51:48;;;;;;;;;;;;;;;;;;5133839;28;19907;-73
2021/10/28 19:54:14;;;;;;;;;;;;;;;;;;5133776;27;19923;-73
2021/10/28 19:56:41;;;;;;;;;;;;;;;;;;5134834;28;19933;-73
2021/10/28 19:59:06;;;;;;;;;;;;;;;;;;5136047;28;19919;-73
2021/10/28 20:01:39;;;;;;;;;;;;;;;;;;5135458;28;19936;-73
2021/10/28 20:14:52;;;;;;;;;;;;;;;;;;;;;
2021/10/28 20:20:48;;;;;;;;;;;;;;;;;;5134711;27;19907;-73
2021/10/28 20:22:42;;;;;;;;;;;;;;;;;;5120723;28;20098;-73
2021/10/28 20:25:07;;;;;;;;;;;;;;;;;;5133123;28;19908;-73
2021/10/28 20:27:32;;;;;;;;;;;;;;;;;;5134998;27;19910;-73
2021/10/28 20:29:58;;;;;;;;;;;;;;;;;;5134669;27;19923;-74
2021/10/28 20:32:24;;;;;;;;;;;;;;;;;;5132795;28;19919;-73
2021/10/28 20:37:53;;;;;;;;;;;;;;;;;;5071897;28;19908;-72
2021/10/28 20:40:18;;;;;;;;;;;;;;;;;;5071374;28;19938;-72
2021/10/28 20:42:47;;;;;;;;;;;;;;;;;;5106551;27;19896;-72
2021/10/28 20:45:12;;;;;;;;;;;;;;;;;;5132083;28;19959;-72
2021/10/28 20:47:38;;;;;;;;;;;;;;;;;;5133230;28;19900;-73
2021/10/28 20:50:03;;;;;;;;;;;;;;;;;;5135651;27;19908;-72
2021/10/28 20:52:29;;;;;;;;;;;;;;;;;;5133274;28;19910;-73
2021/10/28 20:54:54;;;;;;;;;;;;;;;;;;5134071;28;19907;-72
2021/10/28 20:57:19;;;;;;;;;;;;;;;;;;5133198;28;19907;-73
2021/10/28 20:59:45;;;;;;;;;;;;;;;;;;5122496;28;19900;-72
2021/10/28 21:02:11;;;;;;;;;;;;;;;;;;5134088;28;19908;-73
2021/10/28 21:04:37;;;;;;;;;;;;;;;;;;5132839;28;19959;-73
2021/10/28 21:07:02;;;;;;;;;;;;;;;;;;5133495;28;19908;-73
2021/10/28 21:09:27;;;;;;;;;;;;;;;;;;5134148;28;19972;-73
2021/10/28 21:11:52;;;;;;;;;;;;;;;;;;5132826;28;19904;-72
2021/10/28 21:14:18;;;;;;;;;;;;;;;;;;5132879;28;19927;-73
2021/10/28 21:16:43;;;;;;;;;;;;;;;;;;5135274;27;19903;-73
2021/10/28 21:19:08;;;;;;;;;;;;;;;;;;5124257;28;19908;-73
2021/10/28 21:21:35;;;;;;;;;;;;;;;;;;5132450;28;19899;-73
2021/10/28 21:24:00;;;;;;;;;;;;;;;;;;5134570;28;19989;-73
2021/10/28 21:26:27;;;;;;;;;;;;;;;;;;5131771;28;19900;-73
2021/10/28 21:28:52;;;;;;;;;;;;;;;;;;5133840;27;19911;-73
2021/10/28 21:31:17;;;;;;;;;;;;;;;;;;5152411;27;19904;-73
2021/10/28 21:33:42;;;;;;;;;;;;;;;;;;5131646;28;19908;-72
2021/10/28 21:36:08;;;;;;;;;;;;;;;;;;5130950;28;19951;-72
2021/10/28 21:38:33;;;;;;;;;;;;;;;;;;5133382;28;19925;-72
2021/10/28 21:40:58;;;;;;;;;;;;;;;;;;5132076;28;19915;-72
2021/10/28 21:43:24;;;;;;;;;;;;;;;;;;5133210;28;19900;-72
2021/10/28 21:45:51;;;;;;;;;;;;;;;;;;5134104;28;19928;-73
2021/10/28 21:48:16;;;;;;;;;;;;;;;;;;5131741;28;19908;-72
2021/10/28 21:50:42;;;;;;;;;;;;;;;;;;5134994;28;19914;-73
2021/10/28 21:53:11;;;;;;;;;;;;;;;;;;5133049;28;19929;-72
2021/10/28 21:55:50;;;;;;;;;;;;;;;;;;5133496;28;20048;-72
2021/10/28 22:25:06;;;;;;;;;;;;;;;;;;5131785;28;19907;-72
2021/10/28 22:27:31;;;;;;;;;;;;;;;;;;5133312;28;19911;-73
2021/10/28 22:29:58;;;;;;;;;;;;;;;;;;5134435;28;19927;-73
2021/10/28 22:32:24;;;;;;;;;;;;;;;;;;5132550;28;19911;-73
2021/10/28 22:34:49;;;;;;;;;;;;;;;;;;5131329;28;19916;-73
2021/10/28 22:37:38;;;;;;;;;;;;;;;;;;5133236;28;19907;-73
2021/10/28 22:42:29;;;;;;;;;;;;;;;;;;5138603;28;19995;-73
2021/10/28 22:44:54;;;;;;;;;;;;;;;;;;5138692;28;19938;-73
2021/10/28 22:47:19;;;;;;;;;;;;;;;;;;5137851;28;19899;-73
2021/10/28 22:49:44;;;;;;;;;;;;;;;;;;5138603;27;19896;-73
2021/10/28 22:52:16;;;;;;;;;;;;;;;;;;5136664;28;19907;-73
2021/10/28 22:54:43;;;;;;;;;;;;;;;;;;5136455;28;20082;-73
2021/10/28 22:57:13;;;;;;;;;;;;;;;;;;5138482;28;19971;-73
2021/10/28 22:59:38;;;;;;;;;;;;;;;;;;5137614;28;19972;-73
2021/10/28 23:02:51;;;;;;;;;;;;;;;;;;5137119;28;19908;-73
2021/10/28 23:07:53;;;;;;;;;;;;;;;;;;5138327;28;19935;-73
2021/10/28 23:20:48;;;;;;;;;;;;;;;;;;5102529;28;19908;-73
2021/10/28 23:23:14;;;;;;;;;;;;;;;;;;5130530;28;19904;-73
2021/10/28 23:25:39;;;;;;;;;;;;;;;;;;5137082;28;19923;-73
2021/10/28 23:28:04;;;;;;;;;;;;;;;;;;5138286;28;19900;-72
2021/10/28 23:30:30;;;;;;;;;;;;;;;;;;5136497;28;19904;-73
2021/10/28 23:32:58;;;;;;;;;;;;;;;;;;5136587;27;19907;-73
2021/10/28 23:35:23;;;;;;;;;;;;;;;;;;5135567;28;19907;-73
2021/10/28 23:37:48;;;;;;;;;;;;;;;;;;5134851;28;19967;-72
2021/10/28 23:40:14;;;;;;;;;;;;;;;;;;5137332;28;19907;-73
2021/10/28 23:42:39;;;;;;;;;;;;;;;;;;5135371;28;19927;-73
2021/10/28 23:45:04;;;;;;;;;;;;;;;;;;5136545;28;19927;-73
2021/10/28 23:47:29;;;;;;;;;;;;;;;;;;5136194;28;20033;-73
2021/10/28 23:49:54;;;;;;;;;;;;;;;;;;5136958;28;19963;-73
2021/10/28 23:52:20;;;;;;;;;;;;;;;;;;5137785;28;19911;-73
2021/10/28 23:54:45;;;;;;;;;;;;;;;;;;5137673;28;19899;-73
2021/10/28 23:57:10;;;;;;;;;;;;;;;;;;5136152;28;20010;-74
2021/10/28 23:59:35;;;;;;;;;;;;;;;;;;5135447;28;19896;-74
